createdAt,value
2023-05-12T00:01:41.999Z,96644.69
2023-05-12T00:04:10.759Z,96645.66
2023-05-12T00:06:39.266Z,96643.84
2023-05-12T00:09:09.695Z,96638.13
2023-05-12T00:11:38.575Z,96643.28
2023-05-12T00:14:07.436Z,96639.44
2023-05-12T00:16:35.793Z,96640.53
2023-05-12T00:19:04.610Z,96647.09
2023-05-12T00:21:33.512Z,96640.72
2023-05-12T00:24:02.102Z,96642.94
2023-05-12T00:26:32.112Z,96643.09
2023-05-12T00:29:00.874Z,96639.09
2023-05-12T00:31:30.965Z,96639.69
2023-05-12T00:33:59.781Z,96638.63
2023-05-12T00:36:28.521Z,96635.41
2023-05-12T00:38:58.412Z,96634.09
2023-05-12T00:41:26.935Z,96638.91
2023-05-12T00:43:56.774Z,96634.44
2023-05-12T00:46:26.055Z,96635.72
2023-05-12T00:48:55.010Z,96634.91
2023-05-12T00:51:24.031Z,96639.56
2023-05-12T00:53:53.196Z,96638.63
2023-05-12T00:56:22.048Z,96632.22
2023-05-12T00:58:51.090Z,96631.75
2023-05-12T01:01:21.652Z,96628.69
2023-05-12T01:03:54.389Z,96631.28
2023-05-12T01:06:30.358Z,96633.69
2023-05-12T01:09:00.150Z,96636.75
2023-05-12T01:11:28.881Z,96634.47
2023-05-12T01:13:57.583Z,96629.03
2023-05-12T01:16:37.194Z,96634.63
2023-05-12T01:19:16.761Z,96629.16
2023-05-12T01:21:46.182Z,96632.53
2023-05-12T01:24:21.664Z,96624.81
2023-05-12T01:26:51.759Z,96634.28
2023-05-12T01:29:21.199Z,96632.69
2023-05-12T01:31:50.997Z,96626.75
2023-05-12T01:34:20.497Z,96630.28
2023-05-12T01:36:52.837Z,96630.59
2023-05-12T01:39:21.911Z,96621.44
2023-05-12T01:41:52.012Z,96624.66
2023-05-12T01:44:21.602Z,96625.31
2023-05-12T01:46:51.676Z,96622.41
2023-05-12T01:49:20.365Z,96624.69
2023-05-12T01:51:50.397Z,96620.69
2023-05-12T01:54:25.152Z,96627.72
2023-05-12T01:56:55.152Z,96630.00
2023-05-12T01:59:24.293Z,96634.00
2023-05-12T02:01:53.885Z,96625.50
2023-05-12T02:04:29.945Z,96636.88
2023-05-12T02:06:59.877Z,96627.72
2023-05-12T02:09:28.545Z,96626.28
2023-05-12T02:12:04.325Z,96630.13
2023-05-12T02:14:33.012Z,96629.34
2023-05-12T02:17:02.630Z,96634.34
2023-05-12T02:19:30.949Z,96626.63
2023-05-12T02:22:01.105Z,96629.66
2023-05-12T02:24:30.289Z,96626.63
2023-05-12T02:26:59.163Z,96625.38
2023-05-12T02:29:28.828Z,96623.94
2023-05-12T02:31:57.492Z,96623.09
2023-05-12T02:34:26.179Z,96620.53
2023-05-12T02:36:54.867Z,96617.66
2023-05-12T02:39:23.553Z,96617.19
2023-05-12T02:41:52.251Z,96617.19
2023-05-12T02:44:22.390Z,96612.22
2023-05-12T02:46:53.453Z,96613.50
2023-05-12T02:49:22.052Z,96618.94
2023-05-12T02:51:50.670Z,96617.38
2023-05-12T02:54:19.368Z,96607.38
2023-05-12T02:56:48.054Z,96611.25
2023-05-12T02:59:16.744Z,96609.31
2023-05-12T03:01:45.037Z,96613.16
2023-05-12T03:04:14.982Z,96606.44
2023-05-12T03:06:43.351Z,96613.69
2023-05-12T03:09:12.161Z,96615.56
2023-05-12T03:11:40.801Z,96615.75
2023-05-12T03:14:09.483Z,96616.22
2023-05-12T03:16:38.155Z,96617.50
2023-05-12T03:19:06.994Z,96615.91
2023-05-12T03:21:37.339Z,96627.78
2023-05-12T03:24:07.023Z,96623.44
2023-05-12T03:26:35.973Z,96621.84
2023-05-12T03:29:04.267Z,96615.75
2023-05-12T03:31:33.014Z,96617.38
2023-05-12T03:34:01.703Z,96620.44
2023-05-12T03:36:31.238Z,96620.56
2023-05-12T03:39:03.019Z,96610.28
2023-05-12T03:41:31.647Z,96617.84
2023-05-12T03:44:00.313Z,96608.03
2023-05-12T03:46:28.957Z,96614.19
2023-05-12T03:48:58.731Z,96612.56
2023-05-12T03:51:28.066Z,96612.69
2023-05-12T03:53:56.743Z,96610.44
2023-05-12T03:56:26.393Z,96607.38
2023-05-12T03:58:55.167Z,96611.25
2023-05-12T04:01:24.262Z,96610.63
2023-05-12T04:03:53.037Z,96607.38
2023-05-12T04:06:21.742Z,96608.19
2023-05-12T04:08:50.398Z,96615.75
2023-05-12T04:11:18.998Z,96615.25
2023-05-12T04:13:48.616Z,96619.59
2023-05-12T04:16:17.352Z,96620.84
2023-05-12T04:18:46.056Z,96616.53
2023-05-12T04:21:14.685Z,96614.72
2023-05-12T04:23:43.332Z,96621.03
2023-05-12T04:26:11.936Z,96620.88
2023-05-12T04:28:40.518Z,96625.22
2023-05-12T04:31:10.505Z,96621.66
2023-05-12T04:33:39.305Z,96626.31
2023-05-12T04:36:08.733Z,96627.72
2023-05-12T04:38:37.893Z,96638.63
2023-05-12T04:41:06.655Z,96632.53
2023-05-12T04:46:09.100Z,96631.84
2023-05-12T04:48:41.951Z,96647.44
2023-05-12T04:51:10.646Z,96647.91
2023-05-12T04:53:39.352Z,96652.25
2023-05-12T04:56:08.796Z,96649.50
2023-05-12T04:58:39.878Z,96655.94
2023-05-12T05:01:12.288Z,96647.09
2023-05-12T05:03:41.330Z,96643.59
2023-05-12T05:06:10.237Z,96654.00
2023-05-12T05:08:39.063Z,96651.47
2023-05-12T05:11:07.660Z,96649.69
2023-05-12T05:13:36.516Z,96649.84
2023-05-12T05:16:05.397Z,96650.16
2023-05-12T05:18:35.873Z,96656.28
2023-05-12T05:21:04.852Z,96650.16
2023-05-12T05:23:33.564Z,96651.44
2023-05-12T05:26:03.933Z,96654.97
2023-05-12T05:28:32.573Z,96657.97
2023-05-12T05:31:02.267Z,96659.78
2023-05-12T05:33:31.414Z,96658.94
2023-05-12T05:36:01.229Z,96665.19
2023-05-12T05:38:30.005Z,96668.06
2023-05-12T05:40:58.656Z,96663.94
2023-05-12T05:43:29.856Z,96667.59
2023-05-12T05:45:59.153Z,96667.84
2023-05-12T05:48:28.291Z,96672.88
2023-05-12T05:50:56.927Z,96673.19
2023-05-12T05:53:27.997Z,96672.31
2023-05-12T05:55:57.137Z,96674.53
2023-05-12T05:58:25.769Z,96665.72
2023-05-12T06:00:54.477Z,96673.78
2023-05-12T06:03:24.211Z,96675.25
2023-05-12T06:05:53.162Z,96677.78
2023-05-12T06:08:22.179Z,96681.94
2023-05-12T06:10:52.229Z,96690.16
2023-05-12T06:13:20.945Z,96685.78
2023-05-12T06:15:49.595Z,96685.94
2023-05-12T06:18:18.203Z,96681.63
2023-05-12T06:20:46.893Z,96692.75
2023-05-12T06:23:15.480Z,96694.16
2023-05-12T06:25:43.710Z,96694.09
2023-05-12T06:28:13.888Z,96699.41
2023-05-12T06:30:42.921Z,96693.00
2023-05-12T06:33:11.732Z,96700.47
2023-05-12T06:35:40.397Z,96700.47
2023-05-12T06:38:09.378Z,96706.81
2023-05-12T06:40:38.353Z,96702.94
2023-05-12T06:43:07.364Z,96702.84
2023-05-12T06:45:38.466Z,96713.78
2023-05-12T06:48:10.459Z,96705.38
2023-05-12T06:50:38.904Z,96708.59
2023-05-12T06:53:08.120Z,96705.22
2023-05-12T06:55:36.786Z,96707.25
2023-05-12T06:58:05.506Z,96704.59
2023-05-12T07:00:34.216Z,96705.38
2023-05-12T07:03:04.014Z,96703.31
2023-05-12T07:05:32.721Z,96704.94
2023-05-12T07:08:01.015Z,96707.63
2023-05-12T07:10:29.581Z,96717.56
2023-05-12T07:12:58.136Z,96708.47
2023-05-12T07:15:26.808Z,96706.31
2023-05-12T07:17:56.226Z,96702.34
2023-05-12T07:20:25.968Z,96708.63
2023-05-12T07:22:54.837Z,96705.16
2023-05-12T07:25:23.765Z,96713.56
2023-05-12T07:27:52.472Z,96708.44
2023-05-12T07:30:22.444Z,96710.00
2023-05-12T07:32:51.105Z,96708.09
2023-05-12T07:35:19.980Z,96702.44
2023-05-12T07:37:49.678Z,96702.88
2023-05-12T07:40:18.442Z,96703.69
2023-05-12T07:42:47.236Z,96708.00
2023-05-12T07:45:22.842Z,96713.47
2023-05-12T07:47:51.911Z,96716.19
2023-05-12T07:50:21.423Z,96714.75
2023-05-12T07:52:54.030Z,96720.38
2023-05-12T07:55:23.709Z,96708.47
2023-05-12T07:57:52.384Z,96712.13
2023-05-12T08:00:21.420Z,96709.66
2023-05-12T08:02:49.870Z,96714.25
2023-05-12T08:05:18.736Z,96713.03
2023-05-12T08:07:47.750Z,96714.53
2023-05-12T08:10:19.290Z,96714.19
2023-05-12T08:12:48.058Z,96713.78
2023-05-12T08:15:17.086Z,96717.03
2023-05-12T08:17:45.807Z,96716.06
2023-05-12T08:20:14.948Z,96729.75
2023-05-12T08:22:44.396Z,96718.03
2023-05-12T08:25:12.985Z,96722.81
2023-05-12T08:27:42.869Z,96716.28
2023-05-12T08:30:12.528Z,96713.75
2023-05-12T08:32:41.410Z,96720.47
2023-05-12T08:35:10.109Z,96725.38
2023-05-12T08:37:38.659Z,96726.63
2023-05-12T08:40:17.709Z,96719.34
2023-05-12T08:43:01.038Z,96734.41
2023-05-12T08:45:30.718Z,96729.06
2023-05-12T08:48:01.668Z,96717.94
2023-05-12T08:50:32.092Z,96727.94
2023-05-12T08:53:01.187Z,96723.50
2023-05-12T08:55:33.581Z,96726.56
2023-05-12T08:58:04.765Z,96731.19
2023-05-12T09:00:36.108Z,96732.78
2023-05-12T09:03:08.339Z,96729.56
2023-05-12T09:05:38.235Z,96725.38
2023-05-12T09:08:07.809Z,96735.09
2023-05-12T09:10:36.781Z,96739.59
2023-05-12T09:13:14.493Z,96737.56
2023-05-12T09:15:46.007Z,96737.25
2023-05-12T09:18:14.421Z,96743.91
2023-05-12T09:20:43.584Z,96733.66
2023-05-12T09:23:19.208Z,96738.84
2023-05-12T09:25:48.694Z,96737.56
2023-05-12T09:28:18.740Z,96728.13
2023-05-12T09:30:47.402Z,96735.75
2023-05-12T09:33:16.065Z,96723.91
2023-05-12T09:35:46.379Z,96733.41
2023-05-12T09:38:15.748Z,96735.91
2023-05-12T09:40:44.263Z,96734.94
2023-05-12T09:43:15.416Z,96731.03
2023-05-12T09:45:47.570Z,96735.59
2023-05-12T09:48:16.477Z,96738.72
2023-05-12T09:50:49.689Z,96733.56
2023-05-12T09:53:22.862Z,96743.56
2023-05-12T09:55:51.631Z,96747.75
2023-05-12T09:58:21.921Z,96748.75
2023-05-12T10:03:27.935Z,96747.94
2023-05-12T10:06:01.547Z,96744.75
2023-05-12T10:08:36.282Z,96747.22
2023-05-12T10:11:06.951Z,96744.13
2023-05-12T10:13:35.527Z,96753.97
2023-05-12T10:16:06.838Z,96751.25
2023-05-12T10:18:37.098Z,96760.50
2023-05-12T10:21:07.007Z,96757.53
2023-05-12T10:23:38.287Z,96761.53
2023-05-12T10:26:08.237Z,96757.06
2023-05-12T10:28:37.365Z,96763.72
2023-05-12T10:31:09.119Z,96757.66
2023-05-12T10:33:37.941Z,96769.03
2023-05-12T10:36:18.004Z,96763.50
2023-05-12T10:38:50.847Z,96766.75
2023-05-12T10:41:33.262Z,96768.84
2023-05-12T10:44:02.343Z,96770.19
2023-05-12T10:46:32.286Z,96766.34
2023-05-12T10:49:04.195Z,96770.53
2023-05-12T10:51:34.907Z,96767.53
2023-05-12T10:54:07.773Z,96770.97
2023-05-12T10:56:45.134Z,96765.31
2023-05-12T10:59:19.047Z,96765.56
2023-05-12T11:02:04.955Z,96777.59
2023-05-12T11:04:42.749Z,96777.25
2023-05-12T11:07:14.298Z,96766.41
2023-05-12T11:12:17.511Z,96771.13
2023-05-12T11:14:48.402Z,96772.88
2023-05-12T11:17:18.661Z,96764.13
2023-05-12T11:19:48.772Z,96773.34
2023-05-12T11:22:21.649Z,96774.06
2023-05-12T11:24:52.582Z,96780.28
2023-05-12T11:27:24.676Z,96774.56
2023-05-12T11:30:01.825Z,96774.38
2023-05-12T11:32:31.670Z,96780.31
2023-05-12T11:35:14.650Z,96785.69
2023-05-12T11:37:44.964Z,96778.50
2023-05-12T11:40:19.105Z,96775.84
2023-05-12T11:42:51.539Z,96778.16
2023-05-12T11:45:25.785Z,96774.50
2023-05-12T11:48:07.730Z,96782.38
2023-05-12T11:50:40.668Z,96787.28
2023-05-12T11:53:14.601Z,96784.09
2023-05-12T11:55:50.993Z,96786.84
2023-05-12T11:58:26.539Z,96788.16
2023-05-12T12:00:57.095Z,96786.69
2023-05-12T12:03:27.057Z,96784.91
2023-05-12T12:06:04.382Z,96796.06
2023-05-12T12:08:34.098Z,96795.84
2023-05-12T12:11:04.156Z,96790.84
2023-05-12T12:13:32.726Z,96794.84
2023-05-12T12:16:01.363Z,96793.53
2023-05-12T12:18:33.077Z,96795.00
2023-05-12T12:21:04.125Z,96798.31
2023-05-12T12:23:40.597Z,96796.06
2023-05-12T12:26:20.825Z,96793.09
2023-05-12T12:28:49.803Z,96798.09
2023-05-12T12:31:18.963Z,96800.38
2023-05-12T12:33:49.023Z,96802.53
2023-05-12T12:36:17.678Z,96799.97
2023-05-12T12:38:46.336Z,96794.28
2023-05-12T12:41:15.058Z,96798.03
2023-05-12T12:43:44.636Z,96807.06
2023-05-12T12:46:13.239Z,96809.81
2023-05-12T12:48:42.348Z,96808.13
2023-05-12T12:51:14.689Z,96811.94
2023-05-12T12:53:46.121Z,96815.91
2023-05-12T12:56:15.402Z,96808.19
2023-05-12T12:58:44.327Z,96815.69
2023-05-12T13:01:13.993Z,96809.97
2023-05-12T13:03:42.633Z,96822.44
2023-05-12T13:06:11.324Z,96808.56
2023-05-12T13:08:42.444Z,96813.38
2023-05-12T13:11:11.179Z,96816.13
2023-05-12T13:13:39.798Z,96814.06
2023-05-12T13:16:09.205Z,96816.00
2023-05-12T13:18:37.821Z,96818.88
2023-05-12T13:21:06.877Z,96820.09
2023-05-12T13:23:35.147Z,96818.94
2023-05-12T13:26:04.936Z,96822.56
2023-05-12T13:28:33.308Z,96816.38
2023-05-12T13:31:02.013Z,96815.13
2023-05-12T13:33:30.827Z,96814.78
2023-05-12T13:35:59.397Z,96821.38
2023-05-12T13:38:28.003Z,96820.72
2023-05-12T13:40:56.420Z,96828.44
2023-05-12T13:43:26.485Z,96827.84
2023-05-12T13:45:55.353Z,96830.78
2023-05-12T13:48:24.141Z,96821.59
2023-05-12T13:50:52.894Z,96821.72
2023-05-12T13:53:21.564Z,96824.81
2023-05-12T13:55:50.020Z,96820.53
2023-05-12T13:58:18.651Z,96829.34
2023-05-12T14:00:49.388Z,96828.84
2023-05-12T14:03:18.163Z,96837.81
2023-05-12T14:05:46.736Z,96829.16
2023-05-12T14:08:15.295Z,96830.09
2023-05-12T14:10:44.383Z,96843.34
2023-05-12T14:13:13.817Z,96835.34
2023-05-12T14:15:49.286Z,96834.91
2023-05-12T14:18:19.765Z,96837.72
2023-05-12T14:20:48.720Z,96832.72
2023-05-12T14:23:17.547Z,96833.19
2023-05-12T14:25:46.206Z,96830.44
2023-05-12T14:28:14.851Z,96837.66
2023-05-12T14:30:45.218Z,96841.00
2023-05-12T14:33:14.287Z,96841.59
2023-05-12T14:35:52.857Z,96835.63
2023-05-12T14:38:28.334Z,96836.56
2023-05-12T14:40:57.026Z,96840.53
2023-05-12T14:43:25.720Z,96845.66
2023-05-12T14:45:54.989Z,96854.56
2023-05-12T14:48:26.071Z,96844.59
2023-05-12T14:50:56.678Z,96850.19
2023-05-12T14:53:25.917Z,96850.44
2023-05-12T14:55:56.860Z,96853.44
2023-05-12T14:58:25.761Z,96850.03
2023-05-12T15:00:55.412Z,96853.22
2023-05-12T15:03:24.846Z,96852.09
2023-05-12T15:06:05.556Z,96853.00
2023-05-12T15:08:35.649Z,96850.81
2023-05-12T15:11:04.459Z,96857.94
2023-05-12T15:13:33.284Z,96852.28
2023-05-12T15:16:02.964Z,96857.06
2023-05-12T15:18:31.500Z,96856.84
2023-05-12T15:21:01.537Z,96853.34
2023-05-12T15:23:30.267Z,96856.03
2023-05-12T15:26:01.300Z,96860.94
2023-05-12T15:28:35.521Z,96859.53
2023-05-12T15:31:04.551Z,96855.75
2023-05-12T15:33:33.148Z,96854.13
2023-05-12T15:36:02.858Z,96866.59
2023-05-12T15:38:32.330Z,96864.28
2023-05-12T15:41:00.793Z,96865.31
2023-05-12T15:43:30.231Z,96856.16
2023-05-12T15:45:58.835Z,96859.28
2023-05-12T15:48:27.399Z,96855.72
2023-05-12T15:50:56.232Z,96857.31
2023-05-12T15:53:26.271Z,96856.16
2023-05-12T15:56:01.114Z,96856.13
2023-05-12T15:58:30.732Z,96858.38
2023-05-12T16:00:59.012Z,96846.78
2023-05-12T16:03:27.633Z,96855.03
2023-05-12T16:05:56.958Z,96854.41
2023-05-12T16:08:26.929Z,96859.31
2023-05-12T16:10:55.919Z,96851.91
2023-05-12T16:13:24.516Z,96851.72
2023-05-12T16:15:54.456Z,96858.94
2023-05-12T16:18:23.063Z,96851.75
2023-05-12T16:20:51.673Z,96857.50
2023-05-12T16:23:20.336Z,96853.72
2023-05-12T16:25:50.238Z,96845.38
2023-05-12T16:28:19.162Z,96848.72
2023-05-12T16:30:48.016Z,96848.91
2023-05-12T16:33:16.705Z,96847.34
2023-05-12T16:35:45.285Z,96845.41
2023-05-12T16:38:15.407Z,96841.09
2023-05-12T16:40:43.747Z,96839.50
2023-05-12T16:43:13.724Z,96842.34
2023-05-12T16:45:42.425Z,96841.09
2023-05-12T16:48:11.054Z,96847.50
2023-05-12T16:50:39.291Z,96852.41
2023-05-12T16:53:07.906Z,96847.06
2023-05-12T16:55:36.533Z,96852.84
2023-05-12T16:58:05.170Z,96849.22
2023-05-12T17:00:35.487Z,96852.19
2023-05-12T17:03:04.906Z,96845.91
2023-05-12T17:05:34.379Z,96850.47
2023-05-12T17:08:03.641Z,96845.81
2023-05-12T17:10:32.608Z,96854.13
2023-05-12T17:13:00.800Z,96849.34
2023-05-12T17:15:29.215Z,96855.06
2023-05-12T17:17:59.100Z,96856.75
2023-05-12T17:20:28.043Z,96856.31
2023-05-12T17:22:57.053Z,96860.84
2023-05-12T17:25:29.556Z,96860.50
2023-05-12T17:27:58.547Z,96864.22
2023-05-12T17:30:27.462Z,96861.78
2023-05-12T17:32:56.252Z,96856.78
2023-05-12T17:35:26.102Z,96860.75
2023-05-12T17:37:55.686Z,96861.19
2023-05-12T17:40:24.488Z,96861.38
2023-05-12T17:42:53.267Z,96860.34
2023-05-12T17:45:21.905Z,96863.75
2023-05-12T17:47:51.273Z,96863.97
2023-05-12T17:50:19.805Z,96863.97
2023-05-12T17:52:51.022Z,96866.13
2023-05-12T17:55:19.816Z,96868.06
2023-05-12T17:57:49.371Z,96868.78
2023-05-12T18:00:18.408Z,96868.72
2023-05-12T18:02:47.226Z,96867.44
2023-05-12T18:05:15.950Z,96868.91
2023-05-12T18:07:45.623Z,96874.38
2023-05-12T18:10:15.683Z,96870.94
2023-05-12T18:12:44.298Z,96874.19
2023-05-12T18:15:13.322Z,96875.53
2023-05-12T18:17:42.035Z,96873.44
2023-05-12T18:20:11.272Z,96881.34
2023-05-12T18:22:39.872Z,96878.97
2023-05-12T18:25:10.113Z,96882.03
2023-05-12T18:27:40.037Z,96878.56
2023-05-12T18:30:09.655Z,96887.97
2023-05-12T18:32:38.962Z,96892.50
2023-05-12T18:35:09.395Z,96891.88
2023-05-12T18:37:38.652Z,96889.97
2023-05-12T18:40:08.729Z,96898.22
2023-05-12T18:42:37.474Z,96895.84
2023-05-12T18:45:09.635Z,96894.88
2023-05-12T18:47:38.800Z,96900.03
2023-05-12T18:50:08.301Z,96899.03
2023-05-12T18:52:36.941Z,96903.53
2023-05-12T18:55:06.256Z,96906.09
2023-05-12T18:57:34.891Z,96912.34
2023-05-12T19:00:04.710Z,96907.72
2023-05-12T19:02:35.033Z,96910.59
2023-05-12T19:05:03.948Z,96920.88
2023-05-12T19:07:32.580Z,96920.88
2023-05-12T19:10:01.212Z,96922.31
2023-05-12T19:12:29.590Z,96921.53
2023-05-12T19:14:58.191Z,96919.09
2023-05-12T19:17:26.779Z,96923.84
2023-05-12T19:19:56.756Z,96926.09
2023-05-12T19:22:26.665Z,96929.31
2023-05-12T19:24:55.950Z,96929.16
2023-05-12T19:27:26.946Z,96929.97
2023-05-12T19:29:55.770Z,96929.81
2023-05-12T19:32:24.530Z,96941.19
2023-05-12T19:34:53.236Z,96932.97
2023-05-12T19:37:22.987Z,96940.13
2023-05-12T19:39:52.025Z,96934.16
2023-05-12T19:42:20.404Z,96934.28
2023-05-12T19:44:48.681Z,96932.06
2023-05-12T19:47:17.781Z,96936.88
2023-05-12T19:49:46.624Z,96934.47
2023-05-12T19:52:14.926Z,96938.31
2023-05-12T19:54:44.829Z,96937.34
2023-05-12T19:57:13.448Z,96937.97
2023-05-12T19:59:42.243Z,96937.53
2023-05-12T20:02:14.149Z,96929.78
2023-05-12T20:04:42.641Z,96935.75
2023-05-12T20:07:11.553Z,96932.69
2023-05-12T20:09:40.270Z,96936.69
2023-05-12T20:12:11.359Z,96933.50
2023-05-12T20:14:39.931Z,96935.75
2023-05-12T20:17:09.300Z,96934.28
2023-05-12T20:19:37.979Z,96934.47
2023-05-12T20:22:07.358Z,96941.09
2023-05-12T20:24:35.929Z,96931.75
2023-05-12T20:27:04.704Z,96936.59
2023-05-12T20:29:34.755Z,96933.88
2023-05-12T20:32:03.441Z,96928.91
2023-05-12T20:34:31.970Z,96932.44
2023-05-12T20:37:01.058Z,96933.53
2023-05-12T20:39:29.333Z,96926.50
2023-05-12T20:41:58.522Z,96933.06
2023-05-12T20:44:27.157Z,96933.72
2023-05-12T20:46:56.987Z,96927.47
2023-05-12T20:49:25.754Z,96932.28
2023-05-12T20:51:54.085Z,96924.41
2023-05-12T20:54:23.170Z,96924.13
2023-05-12T20:56:51.648Z,96925.09
2023-05-12T20:59:20.555Z,96927.19
2023-05-12T21:01:49.311Z,96923.97
2023-05-12T21:04:19.555Z,96930.25
2023-05-12T21:06:48.214Z,96932.81
2023-05-12T21:09:17.033Z,96932.19
2023-05-12T21:11:45.763Z,96931.22
2023-05-12T21:14:14.378Z,96923.22
2023-05-12T21:16:43.198Z,96931.72
2023-05-12T21:19:12.179Z,96922.88
2023-05-12T21:21:42.160Z,96930.63
2023-05-12T21:24:11.109Z,96934.63
2023-05-12T21:26:39.749Z,96926.75
2023-05-12T21:29:08.400Z,96921.00
2023-05-12T21:31:37.038Z,96928.38
2023-05-12T21:34:06.043Z,96931.78
2023-05-12T21:36:34.626Z,96931.28
2023-05-12T21:39:05.290Z,96934.16
2023-05-12T21:41:34.025Z,96931.75
2023-05-12T21:44:02.703Z,96940.28
2023-05-12T21:46:31.655Z,96941.38
2023-05-12T21:49:00.517Z,96938.66
2023-05-12T21:51:30.128Z,96937.53
2023-05-12T21:53:58.629Z,96938.47
2023-05-12T21:56:28.249Z,96938.00
2023-05-12T21:58:57.053Z,96938.66
2023-05-12T22:01:26.147Z,96943.50
2023-05-12T22:03:54.804Z,96936.09
2023-05-12T22:06:23.169Z,96936.88
2023-05-12T22:08:51.806Z,96938.66
2023-05-12T22:11:21.193Z,96940.41
2023-05-12T22:13:51.886Z,96939.94
2023-05-12T22:16:25.685Z,96935.09
2023-05-12T22:18:54.997Z,96941.06
2023-05-12T22:21:23.454Z,96938.19
2023-05-12T22:23:52.002Z,96941.56
2023-05-12T22:26:20.605Z,96941.56
2023-05-12T22:28:50.615Z,96940.28
2023-05-12T22:31:19.205Z,96935.78
2023-05-12T22:33:47.924Z,96935.44
2023-05-12T22:36:17.385Z,96930.44
2023-05-12T22:38:46.116Z,96931.88
2023-05-12T22:41:14.662Z,96933.66
2023-05-12T22:43:43.234Z,96935.91
2023-05-12T22:46:13.104Z,96930.63
2023-05-12T22:48:42.030Z,96923.72
2023-05-12T22:51:10.848Z,96930.78
2023-05-12T22:53:41.361Z,96928.84
2023-05-12T22:56:10.302Z,96925.34
2023-05-12T22:58:39.114Z,96925.81
2023-05-12T23:01:07.819Z,96926.47
2023-05-12T23:03:37.645Z,96921.47
2023-05-12T23:06:06.493Z,96918.75
2023-05-12T23:08:34.962Z,96925.31
2023-05-12T23:11:03.213Z,96915.22
2023-05-12T23:13:31.785Z,96912.63
2023-05-12T23:16:00.462Z,96909.41
2023-05-12T23:18:29.228Z,96911.03
2023-05-12T23:21:01.420Z,96909.59
2023-05-12T23:23:29.757Z,96911.84
2023-05-12T23:25:58.902Z,96906.69
2023-05-12T23:28:27.609Z,96904.41
2023-05-12T23:30:56.256Z,96908.63
2023-05-12T23:33:25.182Z,96908.28
2023-05-12T23:35:53.971Z,96902.31
2023-05-12T23:38:24.031Z,96900.25
2023-05-12T23:40:52.652Z,96892.84
2023-05-12T23:43:21.376Z,96893.84
2023-05-12T23:45:49.748Z,96892.06
2023-05-12T23:48:18.356Z,96896.88
2023-05-12T23:50:47.217Z,96894.00
2023-05-12T23:53:16.208Z,96897.03
2023-05-12T23:55:46.059Z,96906.38
2023-05-12T23:58:14.342Z,96897.84
